createdAt,value
2018-10-07T00:02:06.567Z,60.42
2018-10-07T00:04:34.029Z,60.27
2018-10-07T00:07:01.500Z,60.50
2018-10-07T00:09:28.944Z,60.33
2018-10-07T00:11:56.368Z,60.53
2018-10-07T00:14:23.946Z,60.67
2018-10-07T00:16:51.723Z,60.63
2018-10-07T00:19:19.178Z,60.55
2018-10-07T00:21:46.664Z,60.48
2018-10-07T00:24:14.119Z,60.37
2018-10-07T00:26:41.547Z,60.34
2018-10-07T00:29:10.244Z,60.25
2018-10-07T00:31:37.686Z,60.30
2018-10-07T00:34:05.092Z,60.35
2018-10-07T00:36:32.641Z,60.38
2018-10-07T00:39:00.075Z,60.31
2018-10-07T00:41:27.474Z,60.24
2018-10-07T00:43:54.916Z,60.31
2018-10-07T00:46:22.395Z,60.36
2018-10-07T00:48:49.867Z,60.28
2018-10-07T00:51:17.394Z,60.18
2018-10-07T00:53:44.785Z,60.04
2018-10-07T00:56:12.242Z,59.88
2018-10-07T00:58:39.663Z,59.92
2018-10-07T01:01:07.143Z,60.06
2018-10-07T01:03:34.531Z,60.17
2018-10-07T01:06:02.008Z,60.28
2018-10-07T01:08:29.494Z,60.35
2018-10-07T01:10:56.952Z,60.31
2018-10-07T01:13:24.433Z,60.12
2018-10-07T01:15:51.903Z,60.07
2018-10-07T01:18:19.341Z,60.05
2018-10-07T01:20:46.747Z,60.01
2018-10-07T01:23:14.162Z,60.18
2018-10-07T01:25:41.620Z,60.10
2018-10-07T01:28:09.182Z,59.79
2018-10-07T01:30:36.661Z,59.79
2018-10-07T01:33:04.085Z,59.89
2018-10-07T01:35:31.508Z,59.84
2018-10-07T01:37:59.102Z,59.81
2018-10-07T01:40:26.502Z,59.90
2018-10-07T01:42:53.980Z,60.02
2018-10-07T01:45:21.397Z,60.01
2018-10-07T01:47:48.839Z,59.96
2018-10-07T01:50:16.484Z,59.85
2018-10-07T01:52:43.931Z,59.93
2018-10-07T01:55:11.325Z,59.86
2018-10-07T01:57:38.836Z,59.94
2018-10-07T02:00:06.310Z,59.96
2018-10-07T02:02:33.771Z,59.93
2018-10-07T02:05:01.245Z,59.95
2018-10-07T02:07:28.720Z,59.99
2018-10-07T02:09:56.134Z,59.95
2018-10-07T02:12:23.616Z,59.82
2018-10-07T02:14:51.064Z,59.71
2018-10-07T02:17:18.503Z,59.73
2018-10-07T02:19:46.093Z,59.81
2018-10-07T02:22:13.571Z,59.98
2018-10-07T02:24:41.101Z,60.05
2018-10-07T02:27:08.634Z,60.08
2018-10-07T02:29:36.166Z,60.19
2018-10-07T02:32:03.572Z,60.21
2018-10-07T02:34:31.035Z,60.42
2018-10-07T02:36:58.536Z,60.58
2018-10-07T02:39:25.958Z,60.62
2018-10-07T02:41:53.397Z,60.71
2018-10-07T02:44:20.864Z,60.85
2018-10-07T02:46:48.334Z,61.02
2018-10-07T02:49:15.784Z,61.09
2018-10-07T02:51:43.200Z,61.22
2018-10-07T02:54:10.631Z,61.16
2018-10-07T02:56:38.063Z,61.20
2018-10-07T02:59:06.035Z,61.10
2018-10-07T03:01:33.563Z,61.15
2018-10-07T03:04:00.964Z,61.05
2018-10-07T03:06:29.101Z,61.01
2018-10-07T03:08:56.544Z,60.94
2018-10-07T03:11:23.950Z,60.98
2018-10-07T03:13:51.363Z,60.92
2018-10-07T03:16:18.760Z,61.25
2018-10-07T03:18:46.207Z,61.50
2018-10-07T03:21:13.632Z,61.42
2018-10-07T03:23:41.032Z,61.44
2018-10-07T03:26:08.486Z,61.41
2018-10-07T03:28:35.908Z,61.43
2018-10-07T03:31:03.421Z,61.31
2018-10-07T03:33:30.899Z,61.19
2018-10-07T03:35:58.322Z,61.26
2018-10-07T03:38:25.794Z,61.27
2018-10-07T03:40:53.252Z,61.00
2018-10-07T03:43:20.703Z,60.87
2018-10-07T03:45:48.133Z,60.90
2018-10-07T03:48:15.534Z,60.84
2018-10-07T03:50:42.971Z,60.97
2018-10-07T03:53:10.593Z,61.05
2018-10-07T03:55:38.098Z,61.19
2018-10-07T03:58:05.521Z,61.26
2018-10-07T04:00:33.007Z,61.51
2018-10-07T04:03:00.433Z,61.90
2018-10-07T04:05:27.889Z,62.17
2018-10-07T04:07:55.373Z,62.30
2018-10-07T04:10:22.815Z,62.21
2018-10-07T04:12:50.323Z,62.46
2018-10-07T04:15:17.724Z,62.81
2018-10-07T04:17:45.197Z,63.10
2018-10-07T04:20:12.664Z,63.35
2018-10-07T04:22:40.120Z,63.35
2018-10-07T04:25:07.554Z,62.91
2018-10-07T04:27:35.014Z,62.96
2018-10-07T04:30:02.476Z,63.73
2018-10-07T04:32:29.946Z,64.02
2018-10-07T04:34:57.437Z,64.17
2018-10-07T04:37:24.881Z,63.84
2018-10-07T04:39:52.375Z,63.61
2018-10-07T04:42:19.791Z,63.32
2018-10-07T04:44:47.262Z,62.25
2018-10-07T04:47:14.690Z,62.27
2018-10-07T04:49:42.086Z,62.13
2018-10-07T04:52:09.561Z,61.97
2018-10-07T04:54:37.028Z,61.86
2018-10-07T04:57:04.434Z,61.80
2018-10-07T04:59:31.892Z,61.48
2018-10-07T05:01:59.395Z,61.42
2018-10-07T05:04:26.876Z,61.31
2018-10-07T05:06:54.317Z,61.29
2018-10-07T05:09:22.330Z,61.22
2018-10-07T05:11:49.751Z,61.16
2018-10-07T05:14:17.452Z,61.11
2018-10-07T05:16:45.131Z,60.81
2018-10-07T05:19:12.727Z,60.95
2018-10-07T05:21:40.166Z,61.08
2018-10-07T05:24:07.699Z,61.02
2018-10-07T05:26:35.180Z,61.23
2018-10-07T05:29:02.603Z,61.62
2018-10-07T05:31:30.073Z,62.04
2018-10-07T05:33:57.516Z,62.20
2018-10-07T05:36:24.945Z,62.07
2018-10-07T05:38:52.469Z,61.93
2018-10-07T05:41:19.938Z,62.28
2018-10-07T05:43:47.343Z,62.59
2018-10-07T05:46:14.828Z,62.72
2018-10-07T05:48:42.229Z,63.58
2018-10-07T05:51:09.679Z,63.71
2018-10-07T05:53:37.142Z,64.09
2018-10-07T05:56:04.599Z,64.39
2018-10-07T05:58:32.056Z,64.93
2018-10-07T06:00:59.514Z,65.32
2018-10-07T06:03:26.981Z,65.71
2018-10-07T06:05:54.450Z,66.16
2018-10-07T06:08:22.842Z,66.09
2018-10-07T06:10:50.313Z,66.58
2018-10-07T06:13:17.823Z,66.49
2018-10-07T06:15:45.312Z,66.49
2018-10-07T06:18:12.755Z,66.77
2018-10-07T06:20:40.200Z,67.18
2018-10-07T06:23:07.605Z,67.16
2018-10-07T06:25:35.014Z,66.88
2018-10-07T06:28:02.471Z,66.62
2018-10-07T06:30:29.980Z,66.26
2018-10-07T06:32:57.423Z,66.10
2018-10-07T06:35:24.905Z,65.74
2018-10-07T06:37:52.344Z,65.42
2018-10-07T06:40:19.778Z,64.85
2018-10-07T06:42:47.236Z,64.48
2018-10-07T06:45:14.791Z,64.29
2018-10-07T06:47:42.180Z,64.01
2018-10-07T06:50:09.651Z,63.74
2018-10-07T06:52:37.166Z,63.45
2018-10-07T06:55:04.611Z,63.20
2018-10-07T06:57:32.010Z,63.34
2018-10-07T06:59:59.451Z,63.36
2018-10-07T07:02:26.950Z,63.29
2018-10-07T07:04:54.417Z,63.43
2018-10-07T07:07:21.909Z,63.27
2018-10-07T07:09:49.323Z,63.15
2018-10-07T07:12:16.838Z,63.19
2018-10-07T07:14:44.247Z,63.14
2018-10-07T07:17:11.688Z,62.86
2018-10-07T07:19:39.176Z,63.11
2018-10-07T07:22:06.656Z,63.92
2018-10-07T07:24:34.125Z,64.43
2018-10-07T07:27:01.534Z,64.55
2018-10-07T07:29:29.515Z,64.60
2018-10-07T07:31:57.016Z,65.02
2018-10-07T07:34:24.826Z,64.85
2018-10-07T07:36:52.312Z,64.78
2018-10-07T07:39:19.942Z,64.98
2018-10-07T07:41:47.365Z,64.80
2018-10-07T07:44:14.829Z,64.85
2018-10-07T07:46:43.167Z,64.61
2018-10-07T07:49:10.640Z,64.72
2018-10-07T07:51:38.107Z,64.61
2018-10-07T07:54:05.540Z,64.15
2018-10-07T07:56:32.980Z,64.15
2018-10-07T07:59:00.464Z,64.21
2018-10-07T08:01:27.888Z,64.10
2018-10-07T08:03:55.315Z,64.67
2018-10-07T08:06:22.800Z,65.10
2018-10-07T08:08:50.313Z,65.28
2018-10-07T08:11:17.660Z,65.37
2018-10-07T08:13:45.133Z,65.22
2018-10-07T08:16:12.563Z,64.91
2018-10-07T08:18:40.067Z,64.90
2018-10-07T08:21:07.520Z,64.84
2018-10-07T08:23:34.981Z,64.92
2018-10-07T08:26:02.446Z,64.65
2018-10-07T08:28:29.879Z,64.54
2018-10-07T08:30:57.439Z,64.67
2018-10-07T08:33:24.874Z,64.53
2018-10-07T08:35:52.330Z,64.49
2018-10-07T08:38:19.881Z,65.28
2018-10-07T08:40:48.516Z,65.37
2018-10-07T08:43:16.013Z,65.84
2018-10-07T08:45:44.433Z,66.22
2018-10-07T08:48:11.895Z,66.29
2018-10-07T08:50:39.352Z,66.41
2018-10-07T08:53:06.799Z,66.43
2018-10-07T08:55:34.262Z,66.31
2018-10-07T08:58:01.717Z,66.05
2018-10-07T09:00:29.150Z,66.07
2018-10-07T09:02:56.632Z,66.92
2018-10-07T09:05:24.131Z,66.63
2018-10-07T09:07:51.719Z,66.48
2018-10-07T09:10:19.163Z,67.42
2018-10-07T09:12:46.662Z,67.37
2018-10-07T09:15:14.327Z,67.58
2018-10-07T09:17:41.767Z,67.33
2018-10-07T09:20:09.327Z,67.26
2018-10-07T09:22:36.879Z,67.39
2018-10-07T09:25:05.123Z,67.86
2018-10-07T09:27:32.766Z,67.80
2018-10-07T09:30:00.261Z,68.07
2018-10-07T09:32:27.781Z,69.01
2018-10-07T09:34:55.344Z,68.62
2018-10-07T09:37:22.732Z,68.03
2018-10-07T09:39:50.318Z,67.76
2018-10-07T09:42:17.784Z,67.73
2018-10-07T09:44:45.220Z,68.02
2018-10-07T09:47:12.719Z,67.79
2018-10-07T09:49:40.099Z,67.72
2018-10-07T09:52:07.777Z,67.35
2018-10-07T09:54:35.199Z,67.54
2018-10-07T09:57:02.881Z,67.07
2018-10-07T09:59:30.328Z,67.38
2018-10-07T10:01:57.783Z,67.76
2018-10-07T10:04:26.292Z,67.50
2018-10-07T10:06:53.717Z,67.03
2018-10-07T10:09:21.161Z,66.93
2018-10-07T10:11:48.627Z,66.90
2018-10-07T10:14:16.144Z,67.09
2018-10-07T10:16:43.753Z,67.01
2018-10-07T10:19:12.026Z,66.49
2018-10-07T10:21:39.520Z,66.22
2018-10-07T10:24:06.983Z,66.17
2018-10-07T10:26:34.632Z,66.19
2018-10-07T10:29:02.162Z,65.16
2018-10-07T10:31:29.600Z,64.42
2018-10-07T10:33:57.052Z,63.45
2018-10-07T10:36:25.379Z,62.48
2018-10-07T10:38:52.985Z,63.24
2018-10-07T10:41:21.033Z,63.47
2018-10-07T10:43:48.689Z,63.35
2018-10-07T10:46:16.342Z,62.55
2018-10-07T10:48:43.787Z,62.55
2018-10-07T10:51:12.344Z,62.64
2018-10-07T10:53:40.351Z,62.53
2018-10-07T10:56:07.833Z,62.41
2018-10-07T10:58:35.367Z,62.69
2018-10-07T11:01:02.912Z,63.09
2018-10-07T11:03:30.324Z,62.40
2018-10-07T11:05:57.819Z,62.53
2018-10-07T11:08:25.329Z,62.60
2018-10-07T11:10:52.824Z,60.54
2018-10-07T11:13:20.332Z,59.43
2018-10-07T11:15:47.914Z,59.01
2018-10-07T11:18:15.729Z,58.88
2018-10-07T11:20:43.762Z,59.17
2018-10-07T11:23:12.435Z,59.03
2018-10-07T11:25:39.981Z,58.60
2018-10-07T11:28:07.470Z,58.38
2018-10-07T11:30:35.066Z,58.24
2018-10-07T11:33:02.771Z,58.26
2018-10-07T11:35:30.360Z,57.89
2018-10-07T11:37:57.815Z,58.06
2018-10-07T11:40:25.471Z,58.45
2018-10-07T11:42:52.910Z,58.20
2018-10-07T11:45:20.359Z,59.07
2018-10-07T11:47:47.914Z,59.49
2018-10-07T11:50:15.370Z,59.76
2018-10-07T11:52:42.939Z,59.47
2018-10-07T11:55:09.873Z,58.85
2018-10-07T11:57:37.366Z,59.15
2018-10-07T12:00:04.784Z,59.36
2018-10-07T12:02:32.348Z,59.49
2018-10-07T12:04:59.755Z,59.35
2018-10-07T12:07:27.238Z,59.17
2018-10-07T12:09:54.687Z,59.07
2018-10-07T12:12:22.171Z,59.14
2018-10-07T12:14:49.618Z,59.11
2018-10-07T12:17:17.067Z,58.85
2018-10-07T12:19:44.494Z,58.49
2018-10-07T12:22:11.959Z,57.84
2018-10-07T12:24:39.450Z,57.97
2018-10-07T12:27:06.950Z,57.87
2018-10-07T12:29:34.645Z,58.25
2018-10-07T12:32:02.159Z,58.60
2018-10-07T12:34:29.607Z,58.52
2018-10-07T12:36:57.032Z,58.29
2018-10-07T12:39:24.888Z,58.33
2018-10-07T12:41:52.361Z,57.96
2018-10-07T12:44:20.534Z,58.50
2018-10-07T12:46:48.046Z,59.10
2018-10-07T12:49:15.511Z,59.15
2018-10-07T12:51:43.067Z,58.74
2018-10-07T12:54:10.606Z,58.38
2018-10-07T12:56:38.670Z,58.08
2018-10-07T12:59:06.192Z,58.04
2018-10-07T13:01:33.716Z,58.01
2018-10-07T13:04:01.141Z,57.77
2018-10-07T13:06:28.797Z,57.19
2018-10-07T13:08:56.248Z,56.41
2018-10-07T13:11:23.706Z,55.85
2018-10-07T13:13:52.152Z,55.39
2018-10-07T13:16:19.617Z,55.37
2018-10-07T13:18:47.119Z,55.46
2018-10-07T13:21:14.648Z,55.40
2018-10-07T13:23:42.237Z,55.18
2018-10-07T13:26:10.702Z,55.17
2018-10-07T13:28:38.341Z,54.89
2018-10-07T13:31:05.948Z,54.53
2018-10-07T13:33:33.602Z,54.06
2018-10-07T13:36:01.174Z,54.01
2018-10-07T13:38:28.626Z,54.22
2018-10-07T13:40:56.099Z,53.73
2018-10-07T13:43:23.616Z,53.29
2018-10-07T13:45:51.145Z,53.09
2018-10-07T13:48:19.736Z,53.00
2018-10-07T13:50:47.685Z,53.19
2018-10-07T13:53:15.166Z,53.44
2018-10-07T13:55:42.780Z,52.16
2018-10-07T13:58:10.248Z,51.74
2018-10-07T14:00:37.695Z,50.97
2018-10-07T14:03:05.233Z,50.45
2018-10-07T14:05:32.809Z,50.31
2018-10-07T14:08:00.268Z,50.27
2018-10-07T14:10:27.765Z,49.72
2018-10-07T14:12:55.489Z,49.93
2018-10-07T14:15:22.920Z,51.01
2018-10-07T14:17:50.450Z,51.00
2018-10-07T14:20:18.025Z,50.94
2018-10-07T14:22:45.538Z,51.06
2018-10-07T14:25:12.988Z,50.97
2018-10-07T14:27:41.274Z,51.19
2018-10-07T14:30:08.753Z,50.31
2018-10-07T14:32:36.176Z,49.72
2018-10-07T14:35:03.649Z,49.84
2018-10-07T14:37:31.279Z,49.89
2018-10-07T14:39:58.786Z,50.25
2018-10-07T14:42:26.203Z,49.69
2018-10-07T14:44:53.606Z,49.67
2018-10-07T14:47:21.015Z,49.57
2018-10-07T14:49:48.542Z,49.51
2018-10-07T14:52:16.017Z,49.53
2018-10-07T14:54:43.582Z,50.07
2018-10-07T14:57:11.089Z,50.24
2018-10-07T14:59:38.577Z,50.23
2018-10-07T15:02:06.120Z,50.78
2018-10-07T15:04:33.623Z,51.00
2018-10-07T15:07:01.097Z,51.31
2018-10-07T15:09:28.595Z,50.83
2018-10-07T15:11:56.078Z,50.92
2018-10-07T15:14:23.604Z,50.94
2018-10-07T15:16:51.479Z,51.14
2018-10-07T15:19:18.923Z,51.11
2018-10-07T15:21:46.432Z,51.08
2018-10-07T15:24:13.936Z,50.92
2018-10-07T15:26:41.380Z,51.02
2018-10-07T15:29:08.949Z,50.86
2018-10-07T15:31:37.971Z,50.63
2018-10-07T15:34:05.523Z,50.79
2018-10-07T15:36:33.022Z,51.00
2018-10-07T15:39:00.489Z,51.17
2018-10-07T15:41:27.895Z,51.19
2018-10-07T15:43:55.321Z,51.35
2018-10-07T15:46:23.373Z,51.38
2018-10-07T15:48:50.891Z,51.49
2018-10-07T15:51:18.384Z,51.78
2018-10-07T15:53:45.900Z,52.16
2018-10-07T15:56:13.428Z,52.35
2018-10-07T15:58:40.931Z,52.58
2018-10-07T16:01:08.454Z,52.87
2018-10-07T16:03:36.213Z,53.25
2018-10-07T16:06:03.664Z,53.31
2018-10-07T16:08:31.119Z,53.63
2018-10-07T16:10:58.594Z,53.72
2018-10-07T16:13:26.204Z,53.86
2018-10-07T16:15:53.712Z,54.30
2018-10-07T16:18:21.216Z,54.79
2018-10-07T16:20:48.589Z,55.05
2018-10-07T16:23:16.225Z,55.15
2018-10-07T16:25:43.807Z,55.03
2018-10-07T16:28:11.825Z,55.35
2018-10-07T16:30:39.770Z,55.52
2018-10-07T16:33:07.202Z,55.55
2018-10-07T16:35:34.671Z,55.98
2018-10-07T16:38:02.107Z,56.01
2018-10-07T16:40:29.599Z,56.03
2018-10-07T16:42:57.225Z,56.04
2018-10-07T16:45:24.719Z,56.04
2018-10-07T16:47:52.634Z,56.12
2018-10-07T16:50:20.390Z,56.16
2018-10-07T16:52:48.145Z,56.34
2018-10-07T16:55:15.625Z,56.44
2018-10-07T16:57:43.109Z,56.44
2018-10-07T17:00:10.617Z,56.34
2018-10-07T17:02:38.183Z,56.41
2018-10-07T17:05:05.797Z,56.76
2018-10-07T17:07:33.427Z,57.02
2018-10-07T17:10:00.842Z,56.95
2018-10-07T17:12:28.516Z,57.10
2018-10-07T17:14:56.043Z,56.80
2018-10-07T17:17:23.591Z,56.98
2018-10-07T17:19:51.105Z,57.33
2018-10-07T17:22:18.594Z,57.64
2018-10-07T17:24:46.066Z,57.91
2018-10-07T17:27:13.709Z,58.07
2018-10-07T17:29:41.237Z,58.28
2018-10-07T17:32:08.721Z,58.70
2018-10-07T17:34:36.260Z,58.78
2018-10-07T17:37:03.787Z,58.84
2018-10-07T17:39:31.388Z,59.02
2018-10-07T17:41:59.177Z,59.15
2018-10-07T17:44:26.708Z,59.40
2018-10-07T17:46:54.354Z,59.52
2018-10-07T17:49:21.917Z,59.76
2018-10-07T17:51:49.410Z,59.93
2018-10-07T17:54:16.860Z,60.10
2018-10-07T17:56:45.280Z,60.39
2018-10-07T17:59:12.802Z,60.59
2018-10-07T18:01:40.322Z,60.79
2018-10-07T18:04:07.865Z,60.69
2018-10-07T18:06:35.396Z,60.70
2018-10-07T18:09:03.042Z,60.70
2018-10-07T18:11:30.605Z,60.84
2018-10-07T18:13:58.181Z,60.81
2018-10-07T18:16:25.674Z,60.93
2018-10-07T18:18:53.180Z,61.17
2018-10-07T18:21:20.709Z,61.43
2018-10-07T18:23:48.208Z,61.76
2018-10-07T18:26:15.653Z,62.00
2018-10-07T18:28:43.166Z,61.91
2018-10-07T18:31:10.663Z,62.13
2018-10-07T18:33:38.103Z,62.40
2018-10-07T18:36:05.570Z,62.55
2018-10-07T18:38:33.228Z,62.62
2018-10-07T18:41:00.660Z,62.55
2018-10-07T18:43:28.119Z,62.58
2018-10-07T18:45:55.674Z,62.96
2018-10-07T18:48:23.142Z,63.26
2018-10-07T18:50:50.633Z,63.36
2018-10-07T18:56:20.565Z,63.22
2018-10-07T18:58:49.412Z,63.23
2018-10-07T19:01:17.399Z,63.47
2018-10-07T19:03:45.682Z,63.73
2018-10-07T19:06:13.313Z,63.99
2018-10-07T19:08:40.791Z,64.12
2018-10-07T19:11:08.736Z,64.23
2018-10-07T19:13:36.301Z,64.30
2018-10-07T19:16:03.861Z,64.57
2018-10-07T19:18:31.363Z,64.80
2018-10-07T19:23:32.465Z,65.40
2018-10-07T19:26:00.055Z,65.44
2018-10-07T19:28:27.505Z,65.65
2018-10-07T19:30:55.303Z,65.60
2018-10-07T19:33:22.762Z,65.52
2018-10-07T19:35:50.620Z,66.00
2018-10-07T19:38:19.360Z,65.80
2018-10-07T19:40:48.404Z,65.69
2018-10-07T19:43:16.099Z,65.61
2018-10-07T19:45:43.554Z,65.57
2018-10-07T19:48:11.002Z,65.80
2018-10-07T19:50:38.628Z,65.83
2018-10-07T19:53:06.135Z,65.92
2018-10-07T19:55:33.600Z,66.14
2018-10-07T19:58:01.547Z,66.31
2018-10-07T20:00:29.224Z,66.31
2018-10-07T20:02:56.685Z,66.30
2018-10-07T20:05:24.123Z,66.55
2018-10-07T20:07:51.996Z,66.64
2018-10-07T20:10:20.261Z,66.71
2018-10-07T20:12:47.769Z,66.75
2018-10-07T20:15:15.272Z,66.55
2018-10-07T20:17:43.652Z,66.55
2018-10-07T20:20:11.166Z,66.77
2018-10-07T20:22:38.618Z,66.69
2018-10-07T20:25:06.124Z,66.90
2018-10-07T20:27:33.563Z,67.17
2018-10-07T20:30:01.065Z,67.44
2018-10-07T20:32:28.468Z,67.53
2018-10-07T20:34:56.022Z,67.48
2018-10-07T20:37:23.512Z,67.45
2018-10-07T20:39:51.950Z,67.49
2018-10-07T20:42:19.377Z,67.45
2018-10-07T20:44:46.818Z,67.52
2018-10-07T20:47:14.325Z,67.41
2018-10-07T20:49:45.758Z,67.37
2018-10-07T20:52:14.564Z,67.62
2018-10-07T20:54:42.465Z,67.75
2018-10-07T20:57:10.022Z,67.82
2018-10-07T20:59:37.439Z,67.86
2018-10-07T21:02:04.934Z,68.05
2018-10-07T21:04:32.382Z,68.03
2018-10-07T21:06:59.951Z,67.88
2018-10-07T21:09:27.350Z,68.00
2018-10-07T21:11:54.865Z,67.88
2018-10-07T21:14:22.637Z,68.21
2018-10-07T21:16:50.083Z,68.08
2018-10-07T21:19:17.520Z,68.02
2018-10-07T21:21:45.051Z,68.06
2018-10-07T21:24:12.527Z,68.16
2018-10-07T21:26:40.030Z,68.26
2018-10-07T21:29:07.451Z,68.50
2018-10-07T21:31:34.951Z,68.62
2018-10-07T21:34:02.411Z,68.63
2018-10-07T21:36:29.892Z,68.75
2018-10-07T21:38:57.317Z,68.60
2018-10-07T21:41:24.898Z,68.45
2018-10-07T21:43:52.282Z,68.58
2018-10-07T21:46:19.793Z,68.58
2018-10-07T21:48:47.205Z,68.70
2018-10-07T21:51:14.674Z,68.84
2018-10-07T21:53:42.326Z,69.00
2018-10-07T21:56:09.804Z,69.13
2018-10-07T21:58:37.238Z,69.15
2018-10-07T22:01:04.832Z,69.05
2018-10-07T22:03:32.308Z,69.01
2018-10-07T22:05:59.801Z,68.90
2018-10-07T22:08:27.269Z,69.02
2018-10-07T22:10:54.786Z,68.96
2018-10-07T22:13:22.224Z,68.71
2018-10-07T22:15:50.007Z,69.30
2018-10-07T22:18:17.507Z,69.99
2018-10-07T22:20:44.990Z,70.18
2018-10-07T22:23:12.472Z,70.37
2018-10-07T22:25:39.956Z,70.36
2018-10-07T22:28:07.489Z,70.11
2018-10-07T22:30:34.987Z,70.05
2018-10-07T22:33:02.437Z,70.17
2018-10-07T22:35:30.005Z,70.20
2018-10-07T22:37:57.574Z,70.13
2018-10-07T22:40:25.063Z,70.13
2018-10-07T22:42:52.537Z,70.13
2018-10-07T22:45:19.998Z,69.95
2018-10-07T22:47:47.495Z,69.98
2018-10-07T22:50:14.947Z,69.85
2018-10-07T22:52:42.400Z,69.90
2018-10-07T22:55:09.841Z,69.87
2018-10-07T22:57:37.295Z,69.93
2018-10-07T23:00:05.258Z,69.86
2018-10-07T23:02:32.676Z,69.84
2018-10-07T23:05:00.163Z,69.88
2018-10-07T23:07:27.610Z,69.82
2018-10-07T23:09:55.049Z,69.81
2018-10-07T23:12:22.495Z,69.76
2018-10-07T23:14:49.956Z,69.86
2018-10-07T23:17:17.459Z,69.95
2018-10-07T23:19:44.937Z,69.99
2018-10-07T23:22:12.403Z,70.12
2018-10-07T23:24:39.813Z,70.30
2018-10-07T23:27:07.411Z,70.58
2018-10-07T23:29:34.853Z,70.73
2018-10-07T23:32:02.365Z,70.46
2018-10-07T23:34:30.171Z,70.20
2018-10-07T23:36:57.656Z,70.26
2018-10-07T23:39:25.167Z,70.30
2018-10-07T23:41:52.651Z,70.25
2018-10-07T23:44:20.119Z,70.20
2018-10-07T23:46:47.575Z,70.11
2018-10-07T23:49:15.101Z,70.07
2018-10-07T23:51:42.674Z,70.03
2018-10-07T23:54:10.072Z,70.14
2018-10-07T23:56:37.593Z,70.12
2018-10-07T23:59:05.068Z,69.94
